createdAt,value
2018-12-15T00:01:23.356Z,30.33
2018-12-15T00:03:52.181Z,27.60
2018-12-15T00:06:21.248Z,28.33
2018-12-15T00:08:50.223Z,31.57
2018-12-15T00:11:19.391Z,29.93
2018-12-15T00:13:48.464Z,30.13
2018-12-15T00:16:18.012Z,30.10
2018-12-15T00:18:48.153Z,31.50
2018-12-15T00:21:17.187Z,30.07
2018-12-15T00:23:46.188Z,29.77
2018-12-15T00:26:15.269Z,30.17
2018-12-15T00:28:44.314Z,30.77
2018-12-15T00:31:13.128Z,29.77
2018-12-15T00:33:42.102Z,30.77
2018-12-15T00:36:10.852Z,33.27
2018-12-15T00:38:39.951Z,30.13
2018-12-15T00:41:09.180Z,30.47
2018-12-15T00:43:38.887Z,31.10
2018-12-15T00:46:07.582Z,30.13
2018-12-15T00:48:36.649Z,29.87
2018-12-15T00:51:06.085Z,30.67
2018-12-15T00:53:35.881Z,29.60
2018-12-15T00:56:04.708Z,27.63
2018-12-15T00:58:33.586Z,27.13
2018-12-15T01:01:02.424Z,26.73
2018-12-15T01:03:31.381Z,25.47
2018-12-15T01:06:00.104Z,26.87
2018-12-15T01:08:29.055Z,27.50
2018-12-15T01:10:57.687Z,27.27
2018-12-15T01:13:26.470Z,26.50
2018-12-15T01:15:56.024Z,26.57
2018-12-15T01:18:24.866Z,26.77
2018-12-15T01:20:53.528Z,26.53
2018-12-15T01:23:23.418Z,27.17
2018-12-15T01:25:52.004Z,28.93
2018-12-15T01:28:20.586Z,27.20
2018-12-15T01:30:49.536Z,26.50
2018-12-15T01:33:18.194Z,27.27
2018-12-15T01:35:46.865Z,28.40
2018-12-15T01:38:16.451Z,28.30
2018-12-15T01:40:52.092Z,28.60
2018-12-15T01:43:21.224Z,28.43
2018-12-15T01:45:49.935Z,28.53
2018-12-15T01:48:18.568Z,28.87
2018-12-15T01:50:47.213Z,27.70
2018-12-15T01:53:16.041Z,26.77
2018-12-15T01:55:44.832Z,27.73
2018-12-15T01:58:13.711Z,27.43
2018-12-15T02:00:42.330Z,28.53
2018-12-15T02:03:11.711Z,28.03
2018-12-15T02:05:40.346Z,29.93
2018-12-15T02:08:09.278Z,26.50
2018-12-15T02:10:38.389Z,26.37
2018-12-15T02:13:07.224Z,25.90
2018-12-15T02:15:36.376Z,26.90
2018-12-15T02:18:05.150Z,26.40
2018-12-15T02:20:33.843Z,27.03
2018-12-15T02:23:02.520Z,27.03
2018-12-15T02:25:31.202Z,26.70
2018-12-15T02:27:59.999Z,26.40
2018-12-15T02:30:29.498Z,27.50
2018-12-15T02:32:58.099Z,27.10
2018-12-15T02:35:27.239Z,27.70
2018-12-15T02:37:56.119Z,28.07
2018-12-15T02:40:24.728Z,26.40
2018-12-15T02:42:53.753Z,26.80
2018-12-15T02:45:22.709Z,26.67
2018-12-15T02:47:51.308Z,27.30
2018-12-15T02:50:20.221Z,27.30
2018-12-15T02:52:49.633Z,26.47
2018-12-15T02:55:18.519Z,28.10
2018-12-15T02:57:47.441Z,25.93
2018-12-15T03:00:16.316Z,25.47
2018-12-15T03:02:45.248Z,26.70
2018-12-15T03:05:14.533Z,25.60
2018-12-15T03:07:43.223Z,25.47
2018-12-15T03:10:12.190Z,25.17
2018-12-15T03:12:41.030Z,25.83
2018-12-15T03:15:09.633Z,25.20
2018-12-15T03:17:38.285Z,24.57
2018-12-15T03:20:07.224Z,24.67
2018-12-15T03:22:35.808Z,26.07
2018-12-15T03:25:04.665Z,25.50
2018-12-15T03:27:33.342Z,24.97
2018-12-15T03:30:02.187Z,25.47
2018-12-15T03:32:30.868Z,25.40
2018-12-15T03:35:00.425Z,24.07
2018-12-15T03:37:29.107Z,25.33
2018-12-15T03:39:57.839Z,25.30
2018-12-15T03:42:26.528Z,23.83
2018-12-15T03:44:55.334Z,23.70
2018-12-15T03:47:24.204Z,25.13
2018-12-15T03:49:53.360Z,24.70
2018-12-15T03:52:21.984Z,25.77
2018-12-15T03:54:50.778Z,25.03
2018-12-15T03:57:19.689Z,26.73
2018-12-15T03:59:48.402Z,25.97
2018-12-15T04:02:17.011Z,24.00
2018-12-15T04:04:45.937Z,25.33
2018-12-15T04:07:14.671Z,24.63
2018-12-15T04:09:43.538Z,24.60
2018-12-15T04:12:12.376Z,23.97
2018-12-15T04:14:41.043Z,22.80
2018-12-15T04:17:09.886Z,23.83
2018-12-15T04:19:38.869Z,25.00
2018-12-15T04:22:18.491Z,24.07
2018-12-15T04:24:47.586Z,23.70
2018-12-15T04:27:16.369Z,22.63
2018-12-15T04:29:45.236Z,22.87
2018-12-15T04:32:13.975Z,24.40
2018-12-15T04:34:42.700Z,21.93
2018-12-15T04:37:12.311Z,24.03
2018-12-15T04:39:41.099Z,23.93
2018-12-15T04:42:10.019Z,23.77
2018-12-15T04:44:39.012Z,23.33
2018-12-15T04:47:07.757Z,24.27
2018-12-15T04:49:36.616Z,23.80
2018-12-15T04:52:05.482Z,24.30
2018-12-15T04:54:34.787Z,23.33
2018-12-15T04:57:03.864Z,24.27
2018-12-15T04:59:32.816Z,23.40
2018-12-15T05:02:01.817Z,24.30
2018-12-15T05:04:30.648Z,23.30
2018-12-15T05:06:59.593Z,23.00
2018-12-15T05:09:28.947Z,23.97
2018-12-15T05:11:57.543Z,23.83
2018-12-15T05:14:26.142Z,23.77
2018-12-15T05:16:54.896Z,23.03
2018-12-15T05:19:23.686Z,23.37
2018-12-15T05:21:52.473Z,21.37
2018-12-15T05:24:21.116Z,24.67
2018-12-15T05:26:49.719Z,23.23
2018-12-15T05:29:18.555Z,23.53
2018-12-15T05:31:47.421Z,23.77
2018-12-15T05:34:16.134Z,21.33
2018-12-15T05:36:44.899Z,22.70
2018-12-15T05:39:13.903Z,19.10
2018-12-15T05:41:42.526Z,20.40
2018-12-15T05:44:11.412Z,18.80
2018-12-15T05:46:42.615Z,19.97
2018-12-15T05:49:11.472Z,19.03
2018-12-15T05:51:40.384Z,17.63
2018-12-15T05:54:09.669Z,17.60
2018-12-15T05:56:38.339Z,15.80
2018-12-15T05:59:07.057Z,15.50
2018-12-15T06:01:35.787Z,15.03
2018-12-15T06:04:04.363Z,16.37
2018-12-15T06:06:33.053Z,14.83
2018-12-15T06:09:01.697Z,15.93
2018-12-15T06:11:30.379Z,17.43
2018-12-15T06:13:58.914Z,16.83
2018-12-15T06:16:27.991Z,16.93
2018-12-15T06:18:56.747Z,19.57
2018-12-15T06:21:25.383Z,18.23
2018-12-15T06:23:54.423Z,18.63
2018-12-15T06:26:22.981Z,17.57
2018-12-15T06:28:51.602Z,13.97
2018-12-15T06:31:20.254Z,11.53
2018-12-15T06:33:48.961Z,11.40
2018-12-15T06:36:17.677Z,13.20
2018-12-15T06:38:46.450Z,12.50
2018-12-15T06:41:15.008Z,14.53
2018-12-15T06:43:44.110Z,14.37
2018-12-15T06:46:12.702Z,14.07
2018-12-15T06:48:41.898Z,14.53
2018-12-15T06:51:10.586Z,15.10
2018-12-15T06:53:39.367Z,14.27
2018-12-15T06:56:08.161Z,14.93
2018-12-15T06:58:37.156Z,15.07
2018-12-15T07:01:05.981Z,15.90
2018-12-15T07:03:34.931Z,15.53
2018-12-15T07:06:03.717Z,16.77
2018-12-15T07:08:32.302Z,15.63
2018-12-15T07:11:00.986Z,14.60
2018-12-15T07:13:29.579Z,16.00
2018-12-15T07:15:58.230Z,16.00
2018-12-15T07:18:26.819Z,14.90
2018-12-15T07:20:55.386Z,14.90
2018-12-15T07:23:24.032Z,15.43
2018-12-15T07:25:52.896Z,14.20
2018-12-15T07:28:21.437Z,14.67
2018-12-15T07:30:50.112Z,16.03
2018-12-15T07:33:18.717Z,14.83
2018-12-15T07:35:47.536Z,14.53
2018-12-15T07:38:16.078Z,15.07
2018-12-15T07:40:44.665Z,15.57
2018-12-15T07:43:13.329Z,14.63
2018-12-15T07:45:42.044Z,13.67
2018-12-15T07:48:10.606Z,16.30
2018-12-15T07:50:39.396Z,19.63
2018-12-15T07:53:07.979Z,16.63
2018-12-15T07:55:36.759Z,17.07
2018-12-15T07:58:05.643Z,16.20
2018-12-15T08:00:34.267Z,14.93
2018-12-15T08:03:02.875Z,14.40
2018-12-15T08:05:31.764Z,15.47
2018-12-15T08:08:00.354Z,16.27
2018-12-15T08:10:33.264Z,15.80
2018-12-15T08:13:03.531Z,13.87
2018-12-15T08:15:32.787Z,14.03
2018-12-15T08:18:01.412Z,15.53
2018-12-15T08:20:30.127Z,14.97
2018-12-15T08:22:58.712Z,16.40
2018-12-15T08:25:27.601Z,15.93
2018-12-15T08:27:56.151Z,16.87
2018-12-15T08:30:24.722Z,16.10
2018-12-15T08:32:53.527Z,17.30
2018-12-15T08:35:22.105Z,15.00
2018-12-15T08:37:50.703Z,17.27
2018-12-15T08:43:47.459Z,16.20
2018-12-15T08:46:17.874Z,21.17
2018-12-15T08:48:46.802Z,18.67
2018-12-15T08:51:16.014Z,16.20
2018-12-15T08:53:44.779Z,15.03
2018-12-15T08:56:13.328Z,15.87
2018-12-15T08:58:42.050Z,15.27
2018-12-15T09:01:10.808Z,16.03
2018-12-15T09:03:39.335Z,17.20
2018-12-15T09:06:08.228Z,14.97
2018-12-15T09:08:36.788Z,14.90
2018-12-15T09:11:05.499Z,15.43
2018-12-15T09:13:34.527Z,17.00
2018-12-15T09:16:03.400Z,15.97
2018-12-15T09:18:32.356Z,14.93
2018-12-15T09:21:01.243Z,14.63
2018-12-15T09:23:29.930Z,15.03
2018-12-15T09:25:58.614Z,15.53
2018-12-15T09:28:27.504Z,16.13
2018-12-15T09:30:56.441Z,16.23
2018-12-15T09:33:25.359Z,15.80
2018-12-15T09:35:54.122Z,14.33
2018-12-15T09:38:22.692Z,15.40
2018-12-15T09:40:51.464Z,14.07
2018-12-15T09:43:20.065Z,13.63
2018-12-15T09:45:50.132Z,14.67
2018-12-15T09:48:19.167Z,13.60
2018-12-15T09:50:47.770Z,14.93
2018-12-15T09:53:16.512Z,15.63
2018-12-15T09:55:45.126Z,14.17
2018-12-15T09:58:13.882Z,14.57
2018-12-15T10:00:42.617Z,16.03
2018-12-15T10:03:11.425Z,14.90
2018-12-15T10:05:40.170Z,16.03
2018-12-15T10:08:09.268Z,15.70
2018-12-15T10:10:38.054Z,16.67
2018-12-15T10:13:06.714Z,16.50
2018-12-15T10:15:35.400Z,15.47
2018-12-15T10:18:04.188Z,15.47
2018-12-15T10:20:32.797Z,16.27
2018-12-15T10:23:01.559Z,17.37
2018-12-15T10:25:30.449Z,18.47
2018-12-15T10:27:59.348Z,17.47
2018-12-15T10:30:33.157Z,16.07
2018-12-15T10:33:02.014Z,16.23
2018-12-15T10:35:30.652Z,18.07
2018-12-15T10:37:59.387Z,16.20
2018-12-15T10:40:28.722Z,16.23
2018-12-15T10:42:57.277Z,14.77
2018-12-15T10:45:25.852Z,19.93
2018-12-15T10:47:54.661Z,16.40
2018-12-15T10:50:23.475Z,16.63
2018-12-15T10:52:52.166Z,13.63
2018-12-15T10:55:21.026Z,16.37
2018-12-15T10:57:50.103Z,14.70
2018-12-15T11:00:29.256Z,13.43
2018-12-15T11:02:58.001Z,13.97
2018-12-15T11:05:27.540Z,15.03
2018-12-15T11:07:57.093Z,16.00
2018-12-15T11:10:25.812Z,15.20
2018-12-15T11:12:55.511Z,15.27
2018-12-15T11:15:24.779Z,15.27
2018-12-15T11:17:53.714Z,16.53
2018-12-15T11:20:22.666Z,14.87
2018-12-15T11:22:51.380Z,16.20
2018-12-15T11:25:20.307Z,14.37
2018-12-15T11:27:49.213Z,16.90
2018-12-15T11:30:18.393Z,15.83
2018-12-15T11:32:48.557Z,13.00
2018-12-15T11:35:17.881Z,15.00
2018-12-15T11:37:46.948Z,13.97
2018-12-15T11:40:15.823Z,13.57
2018-12-15T11:42:44.946Z,15.13
2018-12-15T11:45:14.036Z,13.40
2018-12-15T11:47:42.740Z,14.03
2018-12-15T11:50:11.918Z,17.20
2018-12-15T11:52:40.879Z,15.13
2018-12-15T11:55:09.827Z,19.50
2018-12-15T11:57:38.523Z,16.77
2018-12-15T12:00:08.158Z,23.37
2018-12-15T12:02:36.871Z,17.80
2018-12-15T12:05:07.241Z,23.10
2018-12-15T12:07:35.981Z,23.30
2018-12-15T12:10:05.949Z,28.80
2018-12-15T12:12:35.067Z,25.80
2018-12-15T12:15:04.310Z,35.03
2018-12-15T12:17:33.422Z,34.20
2018-12-15T12:20:02.616Z,34.60
2018-12-15T12:22:31.392Z,26.50
2018-12-15T12:25:00.483Z,23.43
2018-12-15T12:27:29.106Z,26.87
2018-12-15T12:29:58.977Z,26.53
2018-12-15T12:32:28.070Z,23.60
2018-12-15T12:34:56.663Z,20.50
2018-12-15T12:37:26.750Z,18.97
2018-12-15T12:39:55.774Z,23.70
2018-12-15T12:42:24.931Z,22.83
2018-12-15T12:44:56.039Z,19.80
2018-12-15T12:47:24.870Z,19.90
2018-12-15T12:49:57.014Z,16.93
2018-12-15T12:52:25.622Z,19.50
2018-12-15T12:54:54.609Z,21.70
2018-12-15T12:57:23.271Z,22.27
2018-12-15T12:59:52.012Z,20.50
2018-12-15T13:02:20.727Z,18.60
2018-12-15T13:04:49.422Z,21.70
2018-12-15T13:07:18.067Z,18.87
2018-12-15T13:09:46.763Z,21.63
2018-12-15T13:12:15.707Z,18.50
2018-12-15T13:14:44.610Z,17.83
2018-12-15T13:17:13.294Z,20.13
2018-12-15T13:19:42.289Z,20.00
2018-12-15T13:22:11.010Z,16.53
2018-12-15T13:24:39.798Z,18.20
2018-12-15T13:27:08.538Z,19.97
2018-12-15T13:29:37.325Z,24.20
2018-12-15T13:32:06.170Z,16.03
2018-12-15T13:34:35.003Z,16.40
2018-12-15T13:37:04.203Z,17.33
2018-12-15T13:39:32.978Z,21.03
2018-12-15T13:42:01.906Z,20.90
2018-12-15T13:44:30.901Z,13.77
2018-12-15T13:46:59.692Z,18.07
2018-12-15T13:49:28.554Z,19.73
2018-12-15T13:51:57.273Z,21.40
2018-12-15T13:54:26.105Z,21.27
2018-12-15T13:56:54.870Z,22.70
2018-12-15T13:59:23.785Z,21.70
2018-12-15T14:01:52.684Z,21.60
2018-12-15T14:04:21.465Z,22.10
2018-12-15T14:06:50.375Z,21.17
2018-12-15T14:09:18.984Z,19.20
2018-12-15T14:11:47.544Z,20.23
2018-12-15T14:14:16.332Z,21.40
2018-12-15T14:16:45.014Z,18.10
2018-12-15T14:19:13.755Z,17.67
2018-12-15T14:21:42.621Z,18.50
2018-12-15T14:24:11.966Z,20.90
2018-12-15T14:26:40.957Z,22.23
2018-12-15T14:29:09.567Z,21.00
2018-12-15T14:31:38.577Z,20.37
2018-12-15T14:34:07.379Z,21.20
2018-12-15T14:36:36.346Z,20.60
2018-12-15T14:39:08.713Z,17.47
2018-12-15T14:41:37.446Z,19.83
2018-12-15T14:44:06.297Z,19.80
2018-12-15T14:46:35.021Z,22.50
2018-12-15T14:49:03.861Z,20.97
2018-12-15T14:51:33.975Z,21.17
2018-12-15T14:54:02.877Z,20.27
2018-12-15T14:56:31.635Z,22.30
2018-12-15T14:59:00.221Z,22.33
2018-12-15T15:01:28.807Z,22.43
2018-12-15T15:03:57.482Z,21.97
2018-12-15T15:06:26.039Z,22.07
2018-12-15T15:08:55.517Z,19.37
2018-12-15T15:11:25.898Z,19.40
2018-12-15T15:13:56.097Z,20.63
2018-12-15T15:16:25.070Z,19.27
2018-12-15T15:18:53.689Z,22.20
2018-12-15T15:21:22.758Z,21.10
2018-12-15T15:23:51.311Z,20.93
2018-12-15T15:26:20.300Z,21.37
2018-12-15T15:28:49.049Z,20.37
2018-12-15T15:31:17.631Z,22.17
2018-12-15T15:33:46.411Z,21.20
2018-12-15T15:36:15.212Z,21.00
2018-12-15T15:38:44.039Z,19.70
2018-12-15T15:41:12.700Z,21.27
2018-12-15T15:43:42.103Z,20.10
2018-12-15T15:46:11.250Z,23.40
2018-12-15T15:48:39.980Z,21.97
2018-12-15T15:51:08.751Z,22.00
2018-12-15T15:53:37.502Z,19.87
2018-12-15T15:56:06.291Z,20.10
2018-12-15T15:58:35.160Z,19.00
2018-12-15T16:01:03.821Z,19.93
2018-12-15T16:03:32.818Z,21.23
2018-12-15T16:06:01.627Z,18.73
2018-12-15T16:08:30.522Z,20.43
2018-12-15T16:10:59.077Z,20.03
2018-12-15T16:13:28.569Z,19.80
2018-12-15T16:15:57.219Z,18.47
2018-12-15T16:18:25.857Z,19.57
2018-12-15T16:20:54.846Z,19.97
2018-12-15T16:23:23.581Z,21.80
2018-12-15T16:25:52.276Z,19.83
2018-12-15T16:28:21.103Z,21.00
2018-12-15T16:30:50.019Z,22.43
2018-12-15T16:33:18.677Z,20.60
2018-12-15T16:35:47.397Z,21.97
2018-12-15T16:38:16.183Z,21.47
2018-12-15T16:40:45.072Z,21.73
2018-12-15T16:43:13.757Z,21.73
2018-12-15T16:45:42.516Z,16.73
2018-12-15T16:48:11.547Z,17.83
2018-12-15T16:50:40.326Z,20.80
2018-12-15T16:53:09.192Z,18.70
2018-12-15T16:55:37.879Z,20.17
2018-12-15T16:58:07.417Z,18.20
2018-12-15T17:00:36.788Z,16.80
2018-12-15T17:03:05.959Z,20.53
2018-12-15T17:05:34.718Z,19.67
2018-12-15T17:08:03.358Z,20.53
2018-12-15T17:10:31.987Z,18.13
2018-12-15T17:13:00.753Z,20.37
2018-12-15T17:15:29.640Z,19.53
2018-12-15T17:17:58.738Z,19.90
2018-12-15T17:20:27.525Z,20.13
2018-12-15T17:22:56.326Z,21.37
2018-12-15T17:25:25.137Z,22.03
2018-12-15T17:27:54.029Z,20.83
2018-12-15T17:30:22.855Z,25.40
2018-12-15T17:32:51.569Z,23.30
2018-12-15T17:35:20.768Z,22.43
2018-12-15T17:37:50.133Z,21.70
2018-12-15T17:40:19.800Z,22.50
2018-12-15T17:42:48.769Z,22.40
2018-12-15T17:45:18.008Z,22.87
2018-12-15T17:47:47.067Z,22.03
2018-12-15T17:50:16.266Z,23.20
2018-12-15T17:52:46.835Z,23.83
2018-12-15T17:55:16.126Z,24.10
2018-12-15T17:57:45.031Z,23.80
2018-12-15T18:00:14.622Z,24.73
2018-12-15T18:02:43.809Z,25.93
2018-12-15T18:05:13.644Z,24.10
2018-12-15T18:07:42.380Z,25.60
2018-12-15T18:10:11.301Z,23.60
2018-12-15T18:12:40.263Z,23.53
2018-12-15T18:15:09.330Z,23.20
2018-12-15T18:17:38.371Z,24.97
2018-12-15T18:20:09.336Z,25.20
2018-12-15T18:22:38.362Z,25.17
2018-12-15T18:25:08.221Z,21.07
2018-12-15T18:27:37.090Z,21.27
2018-12-15T18:30:08.657Z,22.90
2018-12-15T18:32:37.625Z,25.40
2018-12-15T18:35:07.153Z,24.50
2018-12-15T18:37:35.766Z,25.20
2018-12-15T18:40:06.069Z,21.63
2018-12-15T18:42:34.857Z,20.47
2018-12-15T18:45:04.280Z,22.03
2018-12-15T18:47:33.056Z,19.87
2018-12-15T18:50:01.942Z,24.13
2018-12-15T18:52:30.728Z,20.33
2018-12-15T18:54:59.532Z,21.23
2018-12-15T18:57:28.780Z,20.53
2018-12-15T18:59:58.083Z,21.00
2018-12-15T19:02:27.399Z,21.23
2018-12-15T19:04:56.740Z,21.97
2018-12-15T19:07:26.097Z,20.10
2018-12-15T19:09:55.293Z,21.80
2018-12-15T19:12:24.547Z,19.90
2018-12-15T19:14:53.605Z,20.67
2018-12-15T19:17:22.697Z,21.67
2018-12-15T19:19:51.604Z,20.83
2018-12-15T19:22:21.204Z,20.63
2018-12-15T19:24:51.251Z,19.07
2018-12-15T19:27:19.831Z,21.20
2018-12-15T19:29:49.060Z,21.30
2018-12-15T19:32:17.787Z,21.83
2018-12-15T19:34:52.435Z,20.33
2018-12-15T19:37:19.208Z,21.90
2018-12-15T19:39:47.751Z,21.00
2018-12-15T19:42:16.304Z,20.57
2018-12-15T19:44:45.085Z,22.07
2018-12-15T19:47:13.765Z,20.43
2018-12-15T19:49:42.556Z,20.50
2018-12-15T19:52:11.167Z,20.57
2018-12-15T19:54:39.825Z,19.63
2018-12-15T19:57:08.699Z,21.63
2018-12-15T19:59:37.401Z,20.27
2018-12-15T20:02:06.194Z,23.63
2018-12-15T20:04:35.054Z,22.07
2018-12-15T20:07:03.923Z,22.00
2018-12-15T20:09:32.479Z,23.50
2018-12-15T20:12:01.341Z,21.17
2018-12-15T20:14:29.986Z,23.50
2018-12-15T20:16:59.108Z,23.20
2018-12-15T20:19:27.983Z,24.77
2018-12-15T20:21:56.562Z,22.17
2018-12-15T20:24:25.194Z,22.00
2018-12-15T20:26:54.076Z,22.80
2018-12-15T20:29:22.934Z,24.03
2018-12-15T20:31:51.545Z,23.53
2018-12-15T20:34:20.206Z,22.83
2018-12-15T20:36:49.067Z,20.70
2018-12-15T20:39:18.141Z,22.00
2018-12-15T20:41:47.457Z,21.33
2018-12-15T20:44:16.410Z,22.17
2018-12-15T20:46:45.072Z,21.07
2018-12-15T20:49:13.838Z,21.93
2018-12-15T20:51:43.140Z,22.97
2018-12-15T20:54:19.001Z,22.40
2018-12-15T20:56:48.002Z,19.90
2018-12-15T20:59:16.980Z,21.50
2018-12-15T21:01:45.664Z,24.33
2018-12-15T21:04:14.327Z,24.83
2018-12-15T21:06:43.239Z,22.60
2018-12-15T21:09:12.551Z,22.17
2018-12-15T21:11:41.298Z,19.00
2018-12-15T21:14:12.245Z,20.30
2018-12-15T21:16:41.271Z,22.23
2018-12-15T21:19:11.570Z,20.70
2018-12-15T21:21:40.397Z,23.17
2018-12-15T21:24:09.544Z,20.93
2018-12-15T21:26:39.021Z,19.73
2018-12-15T21:29:07.803Z,21.87
2018-12-15T21:31:36.629Z,23.80
2018-12-15T21:34:08.020Z,24.93
2018-12-15T21:36:37.038Z,24.80
2018-12-15T21:39:07.605Z,22.00
2018-12-15T21:41:36.835Z,23.13
2018-12-15T21:44:06.308Z,22.90
2018-12-15T21:46:35.710Z,24.07
2018-12-15T21:49:05.141Z,23.73
2018-12-15T21:51:33.823Z,24.37
2018-12-15T21:54:03.025Z,23.50
2018-12-15T21:56:32.169Z,24.67
2018-12-15T21:59:01.413Z,23.53
2018-12-15T22:01:30.208Z,24.90
2018-12-15T22:03:59.783Z,23.47
2018-12-15T22:06:28.940Z,22.23
2018-12-15T22:08:57.978Z,22.63
2018-12-15T22:11:27.126Z,23.33
2018-12-15T22:13:55.929Z,23.13
2018-12-15T22:16:25.144Z,24.17
2018-12-15T22:18:54.799Z,23.20
2018-12-15T22:21:23.739Z,24.00
2018-12-15T22:23:52.612Z,21.97
2018-12-15T22:26:21.214Z,21.53
2018-12-15T22:28:50.021Z,22.90
2018-12-15T22:31:18.892Z,23.50
2018-12-15T22:33:48.116Z,22.63
2018-12-15T22:36:18.701Z,21.83
2018-12-15T22:38:47.593Z,23.83
2018-12-15T22:41:16.448Z,24.87
2018-12-15T22:43:45.964Z,24.23
2018-12-15T22:46:14.797Z,23.27
2018-12-15T22:48:44.025Z,24.47
2018-12-15T22:51:12.713Z,24.23
2018-12-15T22:53:41.651Z,22.00
2018-12-15T22:56:10.399Z,23.70
2018-12-15T22:58:39.554Z,23.23
2018-12-15T23:01:11.805Z,23.30
2018-12-15T23:03:40.861Z,23.83
2018-12-15T23:06:10.551Z,22.70
2018-12-15T23:08:39.272Z,25.57
2018-12-15T23:11:08.042Z,24.67
2018-12-15T23:13:36.870Z,22.50
2018-12-15T23:16:06.678Z,24.40
2018-12-15T23:18:37.032Z,24.23
2018-12-15T23:21:06.567Z,22.90
2018-12-15T23:23:37.093Z,24.83
2018-12-15T23:26:06.964Z,21.90
2018-12-15T23:28:35.764Z,23.93
2018-12-15T23:31:07.307Z,22.30
2018-12-15T23:33:37.433Z,22.87
2018-12-15T23:36:07.204Z,23.37
2018-12-15T23:38:36.833Z,21.40
2018-12-15T23:41:05.869Z,22.77
2018-12-15T23:43:35.229Z,21.43
2018-12-15T23:46:05.711Z,23.90
2018-12-15T23:48:36.444Z,22.77
2018-12-15T23:51:08.432Z,22.63
2018-12-15T23:53:37.376Z,23.63
2018-12-15T23:56:06.089Z,22.63
2018-12-15T23:58:35.014Z,23.93
